sensor_id;sensor_type;location;lat;lon;timestamp;temperature;humidity
75357;HTU21D;63946;51.986;5.930;2023-09-07T00:01:00;21.38;63.18
75357;HTU21D;63946;51.986;5.930;2023-09-07T00:03:30;21.36;63.25
75357;HTU21D;63946;51.986;5.930;2023-09-07T00:05:59;21.33;63.40
75357;HTU21D;63946;51.986;5.930;2023-09-07T00:08:28;21.29;63.47
75357;HTU21D;63946;51.986;5.930;2023-09-07T00:11:08;21.23;63.60
75357;HTU21D;63946;51.986;5.930;2023-09-07T00:13:38;21.19;63.66
75357;HTU21D;63946;51.986;5.930;2023-09-07T00:16:06;21.17;63.71
75357;HTU21D;63946;51.986;5.930;2023-09-07T00:18:36;21.13;63.82
75357;HTU21D;63946;51.986;5.930;2023-09-07T00:21:05;21.06;64.00
75357;HTU21D;63946;51.986;5.930;2023-09-07T00:23:34;21.03;64.13
75357;HTU21D;63946;51.986;5.930;2023-09-07T00:26:03;20.99;64.19
75357;HTU21D;63946;51.986;5.930;2023-09-07T00:28:32;20.95;64.28
75357;HTU21D;63946;51.986;5.930;2023-09-07T00:31:00;20.91;64.35
75357;HTU21D;63946;51.986;5.930;2023-09-07T00:33:29;20.87;64.44
75357;HTU21D;63946;51.986;5.930;2023-09-07T00:36:00;20.84;64.49
75357;HTU21D;63946;51.986;5.930;2023-09-07T00:38:29;20.79;64.71
75357;HTU21D;63946;51.986;5.930;2023-09-07T00:40:58;20.76;64.77
75357;HTU21D;63946;51.986;5.930;2023-09-07T00:43:27;20.74;64.77
75357;HTU21D;63946;51.986;5.930;2023-09-07T00:45:56;20.68;64.91
75357;HTU21D;63946;51.986;5.930;2023-09-07T00:48:25;20.65;64.97
75357;HTU21D;63946;51.986;5.930;2023-09-07T00:50:54;20.60;65.06
75357;HTU21D;63946;51.986;5.930;2023-09-07T00:53:27;20.57;65.22
75357;HTU21D;63946;51.986;5.930;2023-09-07T00:55:56;20.55;65.29
75357;HTU21D;63946;51.986;5.930;2023-09-07T00:58:26;20.50;65.27
75357;HTU21D;63946;51.986;5.930;2023-09-07T01:00:55;20.48;65.35
75357;HTU21D;63946;51.986;5.930;2023-09-07T01:03:24;20.47;65.41
75357;HTU21D;63946;51.986;5.930;2023-09-07T01:06:03;20.45;65.51
75357;HTU21D;63946;51.986;5.930;2023-09-07T01:08:36;20.42;65.53
75357;HTU21D;63946;51.986;5.930;2023-09-07T01:11:17;20.40;65.57
75357;HTU21D;63946;51.986;5.930;2023-09-07T01:13:50;20.37;65.55
75357;HTU21D;63946;51.986;5.930;2023-09-07T01:16:21;20.36;65.61
75357;HTU21D;63946;51.986;5.930;2023-09-07T01:18:50;20.35;65.61
75357;HTU21D;63946;51.986;5.930;2023-09-07T01:21:20;20.34;65.65
75357;HTU21D;63946;51.986;5.930;2023-09-07T01:23:51;20.31;65.75
75357;HTU21D;63946;51.986;5.930;2023-09-07T01:26:20;20.30;65.91
75357;HTU21D;63946;51.986;5.930;2023-09-07T01:28:50;20.28;65.98
75357;HTU21D;63946;51.986;5.930;2023-09-07T01:31:21;20.32;65.94
75357;HTU21D;63946;51.986;5.930;2023-09-07T01:33:50;20.33;65.86
75357;HTU21D;63946;51.986;5.930;2023-09-07T01:36:19;20.32;65.88
75357;HTU21D;63946;51.986;5.930;2023-09-07T01:38:48;20.32;65.97
75357;HTU21D;63946;51.986;5.930;2023-09-07T01:41:17;20.31;66.04
75357;HTU21D;63946;51.986;5.930;2023-09-07T01:43:46;20.29;66.07
75357;HTU21D;63946;51.986;5.930;2023-09-07T01:46:15;20.27;66.05
75357;HTU21D;63946;51.986;5.930;2023-09-07T01:48:44;20.26;66.04
75357;HTU21D;63946;51.986;5.930;2023-09-07T01:51:13;20.28;66.04
75357;HTU21D;63946;51.986;5.930;2023-09-07T01:53:43;20.24;66.13
75357;HTU21D;63946;51.986;5.930;2023-09-07T01:56:12;20.24;66.17
75357;HTU21D;63946;51.986;5.930;2023-09-07T01:58:41;20.21;66.20
75357;HTU21D;63946;51.986;5.930;2023-09-07T02:01:27;20.18;66.25
75357;HTU21D;63946;51.986;5.930;2023-09-07T02:03:59;20.16;66.16
75357;HTU21D;63946;51.986;5.930;2023-09-07T02:06:28;20.15;66.24
75357;HTU21D;63946;51.986;5.930;2023-09-07T02:08:56;20.14;66.30
75357;HTU21D;63946;51.986;5.930;2023-09-07T02:11:25;20.12;66.23
75357;HTU21D;63946;51.986;5.930;2023-09-07T02:13:54;20.09;66.33
75357;HTU21D;63946;51.986;5.930;2023-09-07T02:16:23;20.07;66.42
75357;HTU21D;63946;51.986;5.930;2023-09-07T02:19:00;20.04;66.52
75357;HTU21D;63946;51.986;5.930;2023-09-07T02:21:32;20.02;66.56
75357;HTU21D;63946;51.986;5.930;2023-09-07T02:24:01;19.99;66.56
75357;HTU21D;63946;51.986;5.930;2023-09-07T02:26:30;19.97;66.63
75357;HTU21D;63946;51.986;5.930;2023-09-07T02:29:00;19.98;66.65
75357;HTU21D;63946;51.986;5.930;2023-09-07T02:31:31;19.96;66.72
75357;HTU21D;63946;51.986;5.930;2023-09-07T02:34:00;19.94;66.74
75357;HTU21D;63946;51.986;5.930;2023-09-07T02:36:29;19.91;66.83
75357;HTU21D;63946;51.986;5.930;2023-09-07T02:38:58;19.88;66.86
75357;HTU21D;63946;51.986;5.930;2023-09-07T02:41:27;19.86;66.91
75357;HTU21D;63946;51.986;5.930;2023-09-07T02:43:57;19.86;66.83
75357;HTU21D;63946;51.986;5.930;2023-09-07T02:46:26;19.86;66.87
75357;HTU21D;63946;51.986;5.930;2023-09-07T02:48:55;19.86;66.84
75357;HTU21D;63946;51.986;5.930;2023-09-07T02:51:25;19.84;66.82
75357;HTU21D;63946;51.986;5.930;2023-09-07T02:53:56;19.81;66.85
75357;HTU21D;63946;51.986;5.930;2023-09-07T02:56:25;19.79;66.81
75357;HTU21D;63946;51.986;5.930;2023-09-07T02:58:55;19.77;66.85
75357;HTU21D;63946;51.986;5.930;2023-09-07T03:01:24;19.74;66.93
75357;HTU21D;63946;51.986;5.930;2023-09-07T03:03:53;19.72;66.94
75357;HTU21D;63946;51.986;5.930;2023-09-07T03:06:22;19.69;66.98
75357;HTU21D;63946;51.986;5.930;2023-09-07T03:08:53;19.65;67.05
75357;HTU21D;63946;51.986;5.930;2023-09-07T03:11:23;19.63;67.07
75357;HTU21D;63946;51.986;5.930;2023-09-07T03:13:52;19.63;67.07
75357;HTU21D;63946;51.986;5.930;2023-09-07T03:16:21;19.63;67.13
75357;HTU21D;63946;51.986;5.930;2023-09-07T03:18:54;19.59;67.18
75357;HTU21D;63946;51.986;5.930;2023-09-07T03:21:23;19.58;67.23
75357;HTU21D;63946;51.986;5.930;2023-09-07T03:23:56;19.57;67.20
75357;HTU21D;63946;51.986;5.930;2023-09-07T03:26:26;19.54;67.36
75357;HTU21D;63946;51.986;5.930;2023-09-07T03:28:55;19.53;67.30
75357;HTU21D;63946;51.986;5.930;2023-09-07T03:31:24;19.52;67.36
75357;HTU21D;63946;51.986;5.930;2023-09-07T03:33:53;19.50;67.31
75357;HTU21D;63946;51.986;5.930;2023-09-07T03:36:22;19.50;67.29
75357;HTU21D;63946;51.986;5.930;2023-09-07T03:38:51;19.46;67.32
75357;HTU21D;63946;51.986;5.930;2023-09-07T03:41:19;19.47;67.35
75357;HTU21D;63946;51.986;5.930;2023-09-07T03:43:48;19.50;67.33
75357;HTU21D;63946;51.986;5.930;2023-09-07T03:46:17;19.50;67.34
75357;HTU21D;63946;51.986;5.930;2023-09-07T03:48:46;19.50;67.32
75357;HTU21D;63946;51.986;5.930;2023-09-07T03:51:15;19.47;67.37
75357;HTU21D;63946;51.986;5.930;2023-09-07T03:53:44;19.47;67.28
75357;HTU21D;63946;51.986;5.930;2023-09-07T03:56:12;19.45;67.27
75357;HTU21D;63946;51.986;5.930;2023-09-07T03:58:41;19.43;67.30
75357;HTU21D;63946;51.986;5.930;2023-09-07T04:01:10;19.42;67.28
75357;HTU21D;63946;51.986;5.930;2023-09-07T04:03:39;19.41;67.27
75357;HTU21D;63946;51.986;5.930;2023-09-07T04:06:08;19.39;67.30
75357;HTU21D;63946;51.986;5.930;2023-09-07T04:08:37;19.37;67.34
75357;HTU21D;63946;51.986;5.930;2023-09-07T04:11:06;19.33;67.39
75357;HTU21D;63946;51.986;5.930;2023-09-07T04:13:35;19.32;67.48
75357;HTU21D;63946;51.986;5.930;2023-09-07T04:16:04;19.30;67.55
75357;HTU21D;63946;51.986;5.930;2023-09-07T04:18:33;19.31;67.52
75357;HTU21D;63946;51.986;5.930;2023-09-07T04:21:08;19.29;67.62
75357;HTU21D;63946;51.986;5.930;2023-09-07T04:23:37;19.28;67.63
75357;HTU21D;63946;51.986;5.930;2023-09-07T04:26:08;19.26;67.66
75357;HTU21D;63946;51.986;5.930;2023-09-07T04:28:37;19.22;67.66
75357;HTU21D;63946;51.986;5.930;2023-09-07T04:31:07;19.21;67.73
75357;HTU21D;63946;51.986;5.930;2023-09-07T04:33:36;19.21;67.72
75357;HTU21D;63946;51.986;5.930;2023-09-07T04:36:11;19.20;67.80
75357;HTU21D;63946;51.986;5.930;2023-09-07T04:38:44;19.18;67.72
75357;HTU21D;63946;51.986;5.930;2023-09-07T04:41:13;19.20;67.72
75357;HTU21D;63946;51.986;5.930;2023-09-07T04:43:42;19.17;67.85
75357;HTU21D;63946;51.986;5.930;2023-09-07T04:46:13;19.15;67.84
75357;HTU21D;63946;51.986;5.930;2023-09-07T04:48:42;19.14;67.72
75357;HTU21D;63946;51.986;5.930;2023-09-07T04:51:12;19.13;67.76
75357;HTU21D;63946;51.986;5.930;2023-09-07T04:53:41;19.12;67.84
75357;HTU21D;63946;51.986;5.930;2023-09-07T04:56:09;19.12;67.84
75357;HTU21D;63946;51.986;5.930;2023-09-07T04:58:39;19.10;67.93
75357;HTU21D;63946;51.986;5.930;2023-09-07T05:01:10;19.11;67.89
75357;HTU21D;63946;51.986;5.930;2023-09-07T05:03:41;19.12;67.81
75357;HTU21D;63946;51.986;5.930;2023-09-07T05:06:11;19.16;67.75
75357;HTU21D;63946;51.986;5.930;2023-09-07T05:08:40;19.14;67.64
75357;HTU21D;63946;51.986;5.930;2023-09-07T05:11:11;19.13;67.66
75357;HTU21D;63946;51.986;5.930;2023-09-07T05:13:40;19.12;67.70
75357;HTU21D;63946;51.986;5.930;2023-09-07T05:16:10;19.14;67.79
75357;HTU21D;63946;51.986;5.930;2023-09-07T05:18:41;19.16;67.73
75357;HTU21D;63946;51.986;5.930;2023-09-07T05:21:13;19.20;67.64
75357;HTU21D;63946;51.986;5.930;2023-09-07T05:23:43;19.23;67.55
75357;HTU21D;63946;51.986;5.930;2023-09-07T05:26:11;19.23;67.48
75357;HTU21D;63946;51.986;5.930;2023-09-07T05:28:40;19.24;67.46
75357;HTU21D;63946;51.986;5.930;2023-09-07T05:31:11;19.26;67.40
75357;HTU21D;63946;51.986;5.930;2023-09-07T05:33:43;19.32;67.24
75357;HTU21D;63946;51.986;5.930;2023-09-07T05:36:12;19.43;66.98
75357;HTU21D;63946;51.986;5.930;2023-09-07T05:38:40;19.47;66.87
75357;HTU21D;63946;51.986;5.930;2023-09-07T05:41:09;19.55;66.78
75357;HTU21D;63946;51.986;5.930;2023-09-07T05:43:38;19.57;66.62
75357;HTU21D;63946;51.986;5.930;2023-09-07T05:46:07;19.59;66.64
75357;HTU21D;63946;51.986;5.930;2023-09-07T05:48:36;19.60;66.59
75357;HTU21D;63946;51.986;5.930;2023-09-07T05:51:06;19.65;66.43
75357;HTU21D;63946;51.986;5.930;2023-09-07T05:53:35;19.63;66.43
75357;HTU21D;63946;51.986;5.930;2023-09-07T05:56:04;19.65;66.30
75357;HTU21D;63946;51.986;5.930;2023-09-07T05:58:33;19.66;66.27
75357;HTU21D;63946;51.986;5.930;2023-09-07T06:01:04;19.69;66.20
75357;HTU21D;63946;51.986;5.930;2023-09-07T06:03:36;19.71;66.20
75357;HTU21D;63946;51.986;5.930;2023-09-07T06:06:05;19.73;66.14
75357;HTU21D;63946;51.986;5.930;2023-09-07T06:08:34;19.76;66.04
75357;HTU21D;63946;51.986;5.930;2023-09-07T06:11:03;19.77;65.89
75357;HTU21D;63946;51.986;5.930;2023-09-07T06:13:32;19.80;65.79
75357;HTU21D;63946;51.986;5.930;2023-09-07T06:16:01;19.81;65.73
75357;HTU21D;63946;51.986;5.930;2023-09-07T06:18:30;19.83;65.73
75357;HTU21D;63946;51.986;5.930;2023-09-07T06:20:59;19.86;65.62
75357;HTU21D;63946;51.986;5.930;2023-09-07T06:23:28;19.88;65.58
75357;HTU21D;63946;51.986;5.930;2023-09-07T06:25:57;19.94;65.46
75357;HTU21D;63946;51.986;5.930;2023-09-07T06:28:27;19.97;65.47
75357;HTU21D;63946;51.986;5.930;2023-09-07T06:30:56;20.01;65.44
75357;HTU21D;63946;51.986;5.930;2023-09-07T06:33:25;20.04;65.42
75357;HTU21D;63946;51.986;5.930;2023-09-07T06:35:54;20.07;65.38
75357;HTU21D;63946;51.986;5.930;2023-09-07T06:38:27;20.14;65.21
75357;HTU21D;63946;51.986;5.930;2023-09-07T06:40:56;20.19;65.11
75357;HTU21D;63946;51.986;5.930;2023-09-07T17:29:04;30.11;39.30
75357;HTU21D;63946;51.986;5.930;2023-09-07T17:31:34;29.91;39.77
75357;HTU21D;63946;51.986;5.930;2023-09-07T17:34:04;29.54;40.57
75357;HTU21D;63946;51.986;5.930;2023-09-07T17:36:34;29.16;41.60
75357;HTU21D;63946;51.986;5.930;2023-09-07T17:39:03;28.91;42.19
75357;HTU21D;63946;51.986;5.930;2023-09-07T17:41:33;28.71;42.87
75357;HTU21D;63946;51.986;5.930;2023-09-07T17:44:04;28.52;43.23
75357;HTU21D;63946;51.986;5.930;2023-09-07T17:46:35;28.37;43.73
75357;HTU21D;63946;51.986;5.930;2023-09-07T17:49:12;28.24;44.10
75357;HTU21D;63946;51.986;5.930;2023-09-07T17:51:40;28.11;44.47
75357;HTU21D;63946;51.986;5.930;2023-09-07T17:54:11;28.01;44.89
75357;HTU21D;63946;51.986;5.930;2023-09-07T17:56:40;27.91;45.32
75357;HTU21D;63946;51.986;5.930;2023-09-07T17:59:22;27.76;45.75
75357;HTU21D;63946;51.986;5.930;2023-09-07T18:01:53;27.67;46.05
75357;HTU21D;63946;51.986;5.930;2023-09-07T18:04:23;27.55;46.12
75357;HTU21D;63946;51.986;5.930;2023-09-07T18:06:52;27.49;46.21
75357;HTU21D;63946;51.986;5.930;2023-09-07T18:09:21;27.41;46.41
75357;HTU21D;63946;51.986;5.930;2023-09-07T18:11:50;27.30;46.55
75357;HTU21D;63946;51.986;5.930;2023-09-07T18:14:19;27.25;46.77
75357;HTU21D;63946;51.986;5.930;2023-09-07T18:16:50;27.16;46.96
75357;HTU21D;63946;51.986;5.930;2023-09-07T18:19:19;27.08;47.16
75357;HTU21D;63946;51.986;5.930;2023-09-07T18:21:48;27.00;47.23
75357;HTU21D;63946;51.986;5.930;2023-09-07T18:24:17;26.92;47.35
75357;HTU21D;63946;51.986;5.930;2023-09-07T18:26:46;26.83;47.50
75357;HTU21D;63946;51.986;5.930;2023-09-07T18:29:16;26.75;47.75
75357;HTU21D;63946;51.986;5.930;2023-09-07T18:31:46;26.69;47.91
75357;HTU21D;63946;51.986;5.930;2023-09-07T18:34:15;26.63;48.10
75357;HTU21D;63946;51.986;5.930;2023-09-07T18:36:44;26.55;48.25
75357;HTU21D;63946;51.986;5.930;2023-09-07T18:39:13;26.48;48.50
75357;HTU21D;63946;51.986;5.930;2023-09-07T18:41:42;26.39;48.49
75357;HTU21D;63946;51.986;5.930;2023-09-07T18:44:13;26.33;48.60
75357;HTU21D;63946;51.986;5.930;2023-09-07T18:46:42;26.27;48.61
75357;HTU21D;63946;51.986;5.930;2023-09-07T18:49:11;26.21;48.74
75357;HTU21D;63946;51.986;5.930;2023-09-07T18:51:40;26.18;48.73
75357;HTU21D;63946;51.986;5.930;2023-09-07T18:54:09;26.13;48.63
75357;HTU21D;63946;51.986;5.930;2023-09-07T18:56:38;26.11;48.54
75357;HTU21D;63946;51.986;5.930;2023-09-07T18:59:07;26.07;48.77
75357;HTU21D;63946;51.986;5.930;2023-09-07T19:01:38;26.02;48.89
75357;HTU21D;63946;51.986;5.930;2023-09-07T19:06:38;25.91;49.26
75357;HTU21D;63946;51.986;5.930;2023-09-07T19:09:08;25.84;49.45
75357;HTU21D;63946;51.986;5.930;2023-09-07T19:11:40;25.80;49.73
75357;HTU21D;63946;51.986;5.930;2023-09-07T19:14:09;25.73;49.92
75357;HTU21D;63946;51.986;5.930;2023-09-07T19:16:38;25.66;50.24
75357;HTU21D;63946;51.986;5.930;2023-09-07T19:19:07;25.60;50.39
75357;HTU21D;63946;51.986;5.930;2023-09-07T19:21:36;25.53;50.66
75357;HTU21D;63946;51.986;5.930;2023-09-07T19:24:06;25.47;50.90
75357;HTU21D;63946;51.986;5.930;2023-09-07T19:26:36;25.42;51.17
75357;HTU21D;63946;51.986;5.930;2023-09-07T19:29:07;25.35;51.34
75357;HTU21D;63946;51.986;5.930;2023-09-07T19:31:38;25.28;51.68
75357;HTU21D;63946;51.986;5.930;2023-09-07T19:34:07;25.22;51.82
75357;HTU21D;63946;51.986;5.930;2023-09-07T19:36:36;25.16;52.10
75357;HTU21D;63946;51.986;5.930;2023-09-07T19:39:05;25.08;52.27
75357;HTU21D;63946;51.986;5.930;2023-09-07T19:41:43;24.99;52.65
75357;HTU21D;63946;51.986;5.930;2023-09-07T19:44:14;24.91;52.94
75357;HTU21D;63946;51.986;5.930;2023-09-07T19:46:44;24.88;52.97
75357;HTU21D;63946;51.986;5.930;2023-09-07T19:49:12;24.80;53.15
75357;HTU21D;63946;51.986;5.930;2023-09-07T19:51:43;24.77;53.30
75357;HTU21D;63946;51.986;5.930;2023-09-07T19:54:13;24.73;53.50
75357;HTU21D;63946;51.986;5.930;2023-09-07T19:56:42;24.68;53.60
75357;HTU21D;63946;51.986;5.930;2023-09-07T19:59:11;24.61;53.81
75357;HTU21D;63946;51.986;5.930;2023-09-07T20:01:53;24.55;54.04
75357;HTU21D;63946;51.986;5.930;2023-09-07T20:04:24;24.49;54.12
75357;HTU21D;63946;51.986;5.930;2023-09-07T20:06:53;24.43;54.24
75357;HTU21D;63946;51.986;5.930;2023-09-07T20:09:22;24.36;54.40
75357;HTU21D;63946;51.986;5.930;2023-09-07T20:11:59;24.34;54.47
75357;HTU21D;63946;51.986;5.930;2023-09-07T20:14:28;24.33;54.46
75357;HTU21D;63946;51.986;5.930;2023-09-07T20:16:56;24.26;54.46
75357;HTU21D;63946;51.986;5.930;2023-09-07T20:19:40;24.24;54.60
75357;HTU21D;63946;51.986;5.930;2023-09-07T20:22:12;24.20;54.55
75357;HTU21D;63946;51.986;5.930;2023-09-07T20:24:41;24.16;54.53
75357;HTU21D;63946;51.986;5.930;2023-09-07T20:27:10;24.12;54.62
75357;HTU21D;63946;51.986;5.930;2023-09-07T20:29:39;24.08;54.71
75357;HTU21D;63946;51.986;5.930;2023-09-07T20:32:09;24.05;54.80
75357;HTU21D;63946;51.986;5.930;2023-09-07T20:34:38;24.01;54.83
75357;HTU21D;63946;51.986;5.930;2023-09-07T20:37:06;23.96;54.90
75357;HTU21D;63946;51.986;5.930;2023-09-07T20:39:38;23.92;54.85
75357;HTU21D;63946;51.986;5.930;2023-09-07T20:42:07;23.88;54.91
75357;HTU21D;63946;51.986;5.930;2023-09-07T20:44:36;23.82;54.98
75357;HTU21D;63946;51.986;5.930;2023-09-07T20:47:05;23.79;55.05
75357;HTU21D;63946;51.986;5.930;2023-09-07T20:49:34;23.75;55.23
75357;HTU21D;63946;51.986;5.930;2023-09-07T20:52:03;23.72;55.39
75357;HTU21D;63946;51.986;5.930;2023-09-07T20:54:32;23.67;55.39
75357;HTU21D;63946;51.986;5.930;2023-09-07T20:57:01;23.61;55.52
75357;HTU21D;63946;51.986;5.930;2023-09-07T20:59:30;23.60;55.68
75357;HTU21D;63946;51.986;5.930;2023-09-07T21:01:59;23.60;55.72
75357;HTU21D;63946;51.986;5.930;2023-09-07T21:04:28;23.57;55.76
75357;HTU21D;63946;51.986;5.930;2023-09-07T21:06:56;23.52;55.89
75357;HTU21D;63946;51.986;5.930;2023-09-07T21:09:28;23.49;55.97
75357;HTU21D;63946;51.986;5.930;2023-09-07T21:11:59;23.46;55.94
75357;HTU21D;63946;51.986;5.930;2023-09-07T21:14:29;23.42;55.98
75357;HTU21D;63946;51.986;5.930;2023-09-07T21:16:58;23.42;56.02
75357;HTU21D;63946;51.986;5.930;2023-09-07T21:19:26;23.39;56.10
75357;HTU21D;63946;51.986;5.930;2023-09-07T21:21:55;23.37;56.16
75357;HTU21D;63946;51.986;5.930;2023-09-07T21:24:24;23.34;56.27
75357;HTU21D;63946;51.986;5.930;2023-09-07T21:26:56;23.30;56.32
75357;HTU21D;63946;51.986;5.930;2023-09-07T21:29:25;23.27;56.25
75357;HTU21D;63946;51.986;5.930;2023-09-07T21:31:53;23.25;56.42
75357;HTU21D;63946;51.986;5.930;2023-09-07T21:34:22;23.22;56.41
75357;HTU21D;63946;51.986;5.930;2023-09-07T21:36:51;23.17;56.39
75357;HTU21D;63946;51.986;5.930;2023-09-07T21:39:20;23.14;56.66
75357;HTU21D;63946;51.986;5.930;2023-09-07T21:41:51;23.11;56.78
75357;HTU21D;63946;51.986;5.930;2023-09-07T21:44:21;23.06;56.84
75357;HTU21D;63946;51.986;5.930;2023-09-07T21:46:50;23.02;56.64
75357;HTU21D;63946;51.986;5.930;2023-09-07T21:49:19;22.98;56.66
75357;HTU21D;63946;51.986;5.930;2023-09-07T21:51:48;22.94;56.98
75357;HTU21D;63946;51.986;5.930;2023-09-07T21:54:17;22.91;57.11
75357;HTU21D;63946;51.986;5.930;2023-09-07T21:56:46;22.88;57.13
75357;HTU21D;63946;51.986;5.930;2023-09-07T21:59:15;22.84;57.21
75357;HTU21D;63946;51.986;5.930;2023-09-07T22:01:44;22.82;57.40
75357;HTU21D;63946;51.986;5.930;2023-09-07T22:04:13;22.81;57.36
75357;HTU21D;63946;51.986;5.930;2023-09-07T22:06:44;22.79;57.46
75357;HTU21D;63946;51.986;5.930;2023-09-07T22:09:13;22.79;57.56
75357;HTU21D;63946;51.986;5.930;2023-09-07T22:11:42;22.72;57.68
75357;HTU21D;63946;51.986;5.930;2023-09-07T22:14:11;22.70;57.75
75357;HTU21D;63946;51.986;5.930;2023-09-07T22:16:40;22.69;57.74
75357;HTU21D;63946;51.986;5.930;2023-09-07T22:19:09;22.66;57.80
75357;HTU21D;63946;51.986;5.930;2023-09-07T22:21:37;22.64;57.79
75357;HTU21D;63946;51.986;5.930;2023-09-07T22:24:06;22.61;57.91
75357;HTU21D;63946;51.986;5.930;2023-09-07T22:26:37;22.58;57.89
75357;HTU21D;63946;51.986;5.930;2023-09-07T22:29:06;22.57;57.99
75357;HTU21D;63946;51.986;5.930;2023-09-07T22:31:37;22.54;58.05
75357;HTU21D;63946;51.986;5.930;2023-09-07T22:34:06;22.53;58.09
75357;HTU21D;63946;51.986;5.930;2023-09-07T22:36:35;22.51;58.24
75357;HTU21D;63946;51.986;5.930;2023-09-07T22:39:04;22.48;58.31
75357;HTU21D;63946;51.986;5.930;2023-09-07T22:41:33;22.44;58.32
75357;HTU21D;63946;51.986;5.930;2023-09-07T22:44:02;22.40;58.35
75357;HTU21D;63946;51.986;5.930;2023-09-07T22:46:31;22.36;58.48
75357;HTU21D;63946;51.986;5.930;2023-09-07T22:49:01;22.33;58.58
75357;HTU21D;63946;51.986;5.930;2023-09-07T22:51:30;22.29;58.67
75357;HTU21D;63946;51.986;5.930;2023-09-07T22:54:00;22.26;58.74
75357;HTU21D;63946;51.986;5.930;2023-09-07T22:56:28;22.23;58.82
75357;HTU21D;63946;51.986;5.930;2023-09-07T22:58:59;22.20;58.86
75357;HTU21D;63946;51.986;5.930;2023-09-07T23:01:27;22.14;58.74
75357;HTU21D;63946;51.986;5.930;2023-09-07T23:03:56;22.12;58.90
75357;HTU21D;63946;51.986;5.930;2023-09-07T23:06:25;22.09;59.00
75357;HTU21D;63946;51.986;5.930;2023-09-07T23:08:54;22.07;59.12
75357;HTU21D;63946;51.986;5.930;2023-09-07T23:11:23;22.07;59.03
75357;HTU21D;63946;51.986;5.930;2023-09-07T23:13:52;22.06;59.18
75357;HTU21D;63946;51.986;5.930;2023-09-07T23:16:20;22.02;59.20
75357;HTU21D;63946;51.986;5.930;2023-09-07T23:18:49;21.99;59.38
75357;HTU21D;63946;51.986;5.930;2023-09-07T23:21:18;21.97;59.40
75357;HTU21D;63946;51.986;5.930;2023-09-07T23:23:47;21.93;59.46
75357;HTU21D;63946;51.986;5.930;2023-09-07T23:26:16;21.90;59.52
75357;HTU21D;63946;51.986;5.930;2023-09-07T23:28:46;21.89;59.59
75357;HTU21D;63946;51.986;5.930;2023-09-07T23:31:15;21.85;59.64
75357;HTU21D;63946;51.986;5.930;2023-09-07T23:33:47;21.82;59.78
75357;HTU21D;63946;51.986;5.930;2023-09-07T23:36:17;21.82;59.68
75357;HTU21D;63946;51.986;5.930;2023-09-07T23:38:52;21.81;59.76
75357;HTU21D;63946;51.986;5.930;2023-09-07T23:41:21;21.81;59.81
75357;HTU21D;63946;51.986;5.930;2023-09-07T23:43:50;21.76;59.91
75357;HTU21D;63946;51.986;5.930;2023-09-07T23:46:19;21.74;60.00
75357;HTU21D;63946;51.986;5.930;2023-09-07T23:48:48;21.72;59.99
75357;HTU21D;63946;51.986;5.930;2023-09-07T23:51:16;21.69;60.06
75357;HTU21D;63946;51.986;5.930;2023-09-07T23:53:46;21.68;60.08
75357;HTU21D;63946;51.986;5.930;2023-09-07T23:56:14;21.64;60.20
75357;HTU21D;63946;51.986;5.930;2023-09-07T23:58:43;21.62;60.18
